Time;durP1;ratioP1;P1;durP2;ratioP2;P2;SDS_P1;SDS_P2;PMS_P1;PMS_P2;Temp;Humidity;BMP_temperature;BMP_pressure;BME280_temperature;BME280_humidity;BME280_pressure;Samples;Min_cycle;Max_cycle;Signal;HPM_P1;HPM_P2
2021/10/27 00:01:13;;;;;;;;;;;;;;;5.92;79.49;97418.00;5074887;28;19949;-77
2021/10/27 00:03:39;;;;;;;;;;;;;;;5.89;79.81;97413.94;5075144;28;19946;-76
2021/10/27 00:06:05;;;;;;;;;;;;;;;5.89;80.23;97414.75;5075083;28;19967;-75
2021/10/27 00:08:31;;;;;;;;;;;;;;;5.90;80.09;97421.59;5074838;28;20045;-77
2021/10/27 00:10:57;;;;;;;;;;;;;;;5.90;80.18;97418.19;5075119;28;19986;-75
2021/10/27 00:13:23;;;;;;;;;;;;;;;5.88;80.35;97417.53;5075252;28;20034;-75
2021/10/27 00:15:50;;;;;;;;;;;;;;;5.87;80.67;97414.09;5074685;28;19972;-75
2021/10/27 00:18:16;;;;;;;;;;;;;;;5.87;80.68;97421.91;5074188;28;19949;-75
2021/10/27 00:20:42;;;;;;;;;;;;;;;5.89;80.96;97414.75;5074891;28;19950;-75
2021/10/27 00:23:08;;;;;;;;;;;;;;;5.89;81.21;97414.75;5074786;28;19991;-77
2021/10/27 00:25:34;;;;;;;;;;;;;;;5.90;81.17;97412.97;5074782;28;19966;-75
2021/10/27 00:28:00;;;;;;;;;;;;;;;5.90;81.40;97412.97;5074632;28;20406;-75
2021/10/27 00:30:26;;;;;;;;;;;;;;;5.90;81.68;97413.78;5073168;28;20045;-76
2021/10/27 00:32:53;;;;;;;;;;;;;;;5.89;81.43;97412.16;5074833;28;19956;-76
2021/10/27 00:35:19;;;;;;;;;;;;;;;5.89;81.49;97419.97;5073973;28;19963;-77
2021/10/27 00:37:44;;;;;;;;;;;;;;;5.88;81.58;97417.53;5074316;28;20421;-77
2021/10/27 00:40:12;;;;;;;;;;;;;;;5.85;81.05;97423.88;5074396;28;19983;-76
2021/10/27 00:42:38;;;;;;;;;;;;;;;5.81;80.69;97419.97;5074149;28;19960;-77
2021/10/27 00:45:05;;;;;;;;;;;;;;;5.78;80.64;97409.88;5074869;28;19964;-77
2021/10/27 00:47:31;;;;;;;;;;;;;;;5.74;80.48;97410.38;5074032;28;19968;-77
2021/10/27 00:49:57;;;;;;;;;;;;;;;5.72;80.65;97412.34;5074387;28;19991;-77
2021/10/27 00:52:23;;;;;;;;;;;;;;;5.72;81.10;97414.94;5073970;28;19976;-77
2021/10/27 00:54:50;;;;;;;;;;;;;;;5.72;81.61;97396.72;5074293;28;20440;-75
2021/10/27 00:57:18;;;;;;;;;;;;;;;5.75;82.17;97407.59;5073836;28;19993;-77
2021/10/27 00:59:44;;;;;;;;;;;;;;;5.78;82.82;97409.88;5073988;28;19954;-78
2021/10/27 01:02:11;;;;;;;;;;;;;;;5.79;83.10;97408.91;5074333;28;19953;-76
2021/10/27 01:04:38;;;;;;;;;;;;;;;5.80;83.54;97405.34;5073956;28;20413;-76
2021/10/27 01:07:04;;;;;;;;;;;;;;;5.81;83.29;97396.53;5073885;28;19975;-76
2021/10/27 01:09:30;;;;;;;;;;;;;;;5.82;83.27;97402.56;5073731;28;20413;-77
2021/10/27 01:11:58;;;;;;;;;;;;;;;5.82;83.13;97402.56;5074104;28;19957;-76
2021/10/27 01:14:32;;;;;;;;;;;;;;;5.82;83.39;97405.19;5073920;28;19945;-76
2021/10/27 01:16:58;;;;;;;;;;;;;;;5.82;83.55;97403.38;5073930;28;19961;-76
2021/10/27 01:19:23;;;;;;;;;;;;;;;5.82;83.67;97405.97;5073615;28;19948;-76
2021/10/27 01:21:49;;;;;;;;;;;;;;;5.83;83.78;97399.78;5073639;28;20018;-76
2021/10/27 01:24:16;;;;;;;;;;;;;;;5.84;84.22;97405.81;5073983;28;20406;-76
2021/10/27 01:26:42;;;;;;;;;;;;;;;5.87;84.24;97406.28;5073598;28;20299;-76
2021/10/27 01:29:08;;;;;;;;;;;;;;;5.88;84.04;97407.94;5073639;28;19996;-76
2021/10/27 01:31:34;;;;;;;;;;;;;;;5.86;84.41;97398.66;5073383;28;19986;-76
2021/10/27 01:34:00;;;;;;;;;;;;;;;5.85;84.46;97394.41;5072448;28;19996;-77
2021/10/27 01:36:29;;;;;;;;;;;;;;;5.85;84.17;97394.41;5073760;28;19972;-76
2021/10/27 01:38:55;;;;;;;;;;;;;;;5.84;84.30;97388.41;5073499;28;19961;-76
2021/10/27 01:41:20;;;;;;;;;;;;;;;5.83;83.68;97394.56;5073278;28;20046;-76
2021/10/27 01:43:51;;;;;;;;;;;;;;;5.81;83.53;97387.91;5072070;28;20360;-75
2021/10/27 01:46:24;;;;;;;;;;;;;;;5.82;83.52;97390.38;5073635;28;19951;-75
2021/10/27 01:48:50;;;;;;;;;;;;;;;5.82;83.47;97394.75;5076292;28;19955;-76
2021/10/27 01:51:16;;;;;;;;;;;;;;;5.79;83.32;97387.25;5077559;28;20050;-76
2021/10/27 01:53:42;;;;;;;;;;;;;;;5.78;83.00;97383.84;5077816;28;20459;-75
2021/10/27 01:56:08;;;;;;;;;;;;;;;5.78;82.72;97381.25;5077326;28;20063;-76
2021/10/27 01:58:34;;;;;;;;;;;;;;;5.78;82.64;97381.25;5077651;28;20375;-76
2021/10/27 02:00:59;;;;;;;;;;;;;;;5.77;82.56;97384.81;5077567;28;20004;-75
2021/10/27 02:03:26;;;;;;;;;;;;;;;5.78;82.60;97390.88;5077404;28;19955;-76
2021/10/27 02:05:52;;;;;;;;;;;;;;;5.77;82.59;97391.81;5077455;28;20412;-76
2021/10/27 02:08:18;;;;;;;;;;;;;;;5.75;82.62;97388.56;5077294;28;19979;-76
2021/10/27 02:10:44;;;;;;;;;;;;;;;5.70;82.62;97382.06;5077261;28;20009;-76
2021/10/27 02:13:10;;;;;;;;;;;;;;;5.67;82.76;97390.22;5077585;28;19953;-75
2021/10/27 02:15:35;;;;;;;;;;;;;;;5.64;82.70;97385.31;5077285;28;19957;-76
2021/10/27 02:18:01;;;;;;;;;;;;;;;5.60;82.41;97378.81;5077080;28;19974;-76
2021/10/27 02:20:27;;;;;;;;;;;;;;;5.58;82.26;97382.56;5077057;28;20014;-76
2021/10/27 02:22:53;;;;;;;;;;;;;;;5.54;82.23;97384.66;5076897;28;20012;-76
2021/10/27 02:25:19;;;;;;;;;;;;;;;5.52;82.10;97385.81;5076992;28;19957;-76
2021/10/27 02:27:45;;;;;;;;;;;;;;;5.47;81.90;97381.91;5076821;28;20365;-76
2021/10/27 02:30:11;;;;;;;;;;;;;;;5.46;81.48;97395.09;5076830;28;19960;-76
2021/10/27 02:32:37;;;;;;;;;;;;;;;5.40;81.39;97391.34;5076971;28;19955;-76
2021/10/27 02:35:04;;;;;;;;;;;;;;;5.33;81.60;97398.16;5076577;28;19955;-76
2021/10/27 02:37:30;;;;;;;;;;;;;;;5.28;81.67;97397.84;5076632;28;20480;-75
2021/10/27 02:39:56;;;;;;;;;;;;;;;5.26;81.66;97403.19;5076502;28;20047;-75
2021/10/27 02:42:22;;;;;;;;;;;;;;;5.23;81.53;97398.31;5076640;28;20419;-76
2021/10/27 02:44:48;;;;;;;;;;;;;;;5.22;81.69;97398.47;5076752;28;19957;-76
2021/10/27 02:47:14;;;;;;;;;;;;;;;5.19;81.64;97404.81;5076593;28;19962;-76
2021/10/27 02:49:40;;;;;;;;;;;;;;;5.18;81.70;97397.97;5076426;28;19963;-75
2021/10/27 02:52:06;;;;;;;;;;;;;;;5.15;81.43;97402.69;5076492;28;20066;-75
2021/10/27 02:54:32;;;;;;;;;;;;;;;5.14;81.28;97401.06;5076409;28;19965;-76
2021/10/27 02:56:57;;;;;;;;;;;;;;;5.09;81.18;97396.34;5076296;28;20007;-75
2021/10/27 02:59:24;;;;;;;;;;;;;;;5.07;80.91;97395.69;5075949;28;19957;-76
2021/10/27 03:01:49;;;;;;;;;;;;;;;5.03;81.07;97396.97;5076167;28;19956;-75
2021/10/27 03:04:15;;;;;;;;;;;;;;;5.00;80.67;97402.50;5076166;28;19952;-76
2021/10/27 03:06:41;;;;;;;;;;;;;;;4.98;80.74;97394.06;5076497;28;20063;-76
2021/10/27 03:09:07;;;;;;;;;;;;;;;4.95;80.72;97400.34;5076046;28;19962;-76
2021/10/27 03:11:33;;;;;;;;;;;;;;;4.92;80.67;97397.28;5076044;28;19949;-76
2021/10/27 03:13:59;;;;;;;;;;;;;;;4.90;80.64;97400.03;5076046;28;19961;-77
2021/10/27 03:16:25;;;;;;;;;;;;;;;4.85;80.32;97389.28;5076049;28;20322;-76
2021/10/27 03:18:51;;;;;;;;;;;;;;;4.82;80.26;97390.41;5075670;28;19954;-76
2021/10/27 03:21:16;;;;;;;;;;;;;;;4.78;80.76;97396.09;5075182;28;19954;-76
2021/10/27 03:23:42;;;;;;;;;;;;;;;4.74;80.61;97398.19;5076289;28;19995;-76
2021/10/27 03:26:08;;;;;;;;;;;;;;;4.72;80.69;97401.91;5075980;28;20433;-76
2021/10/27 03:28:34;;;;;;;;;;;;;;;4.70;80.47;97402.06;5075789;28;19947;-76
2021/10/27 03:31:00;;;;;;;;;;;;;;;4.68;80.32;97404.00;5075772;28;20370;-76
2021/10/27 03:33:26;;;;;;;;;;;;;;;4.65;80.22;97402.53;5057744;28;19999;-76
2021/10/27 03:35:52;;;;;;;;;;;;;;;4.64;80.81;97407.88;5076001;28;19958;-76
2021/10/27 03:38:18;;;;;;;;;;;;;;;4.59;80.77;97400.56;5075511;28;20073;-75
2021/10/27 03:40:45;;;;;;;;;;;;;;;4.56;80.73;97400.91;5075767;28;20003;-75
2021/10/27 03:43:11;;;;;;;;;;;;;;;4.56;80.87;97403.50;5074232;28;19954;-76
2021/10/27 03:45:37;;;;;;;;;;;;;;;4.56;80.82;97407.88;5075635;28;19956;-75
2021/10/27 03:48:03;;;;;;;;;;;;;;;4.56;81.07;97410.47;5075348;28;19958;-75
2021/10/27 03:50:29;;;;;;;;;;;;;;;4.56;80.92;97416.47;5075458;28;19952;-75
2021/10/27 03:52:55;;;;;;;;;;;;;;;4.54;81.29;97418.41;5074944;28;19986;-75
2021/10/27 03:55:21;;;;;;;;;;;;;;;4.53;81.50;97423.75;5074168;28;19964;-75
2021/10/27 03:57:47;;;;;;;;;;;;;;;4.54;81.60;97420.22;5075025;28;19977;-75
2021/10/27 04:00:13;;;;;;;;;;;;;;;4.52;81.24;97417.75;5075055;28;20000;-75
2021/10/27 04:02:39;;;;;;;;;;;;;;;4.54;81.50;97413.22;5075218;28;19960;-75
2021/10/27 04:05:06;;;;;;;;;;;;;;;4.55;81.66;97414.03;5075098;28;19953;-75
2021/10/27 04:07:36;;;;;;;;;;;;;;;4.54;82.06;97413.22;5074868;28;20405;-75
2021/10/27 04:10:07;;;;;;;;;;;;;;;4.55;82.14;97414.03;5074329;28;19948;-75
2021/10/27 04:12:34;;;;;;;;;;;;;;;4.54;82.40;97418.41;5074967;28;19953;-76
2021/10/27 04:15:00;;;;;;;;;;;;;;;4.56;82.68;97410.47;5074774;28;19955;-77
2021/10/27 04:17:26;;;;;;;;;;;;;;;4.56;83.03;97429.47;5074758;28;20444;-76
2021/10/27 04:19:52;;;;;;;;;;;;;;;4.58;83.55;97426.72;5074911;28;20052;-76
2021/10/27 04:22:18;;;;;;;;;;;;;;;4.59;84.64;97429.13;5074643;28;20417;-77
2021/10/27 04:24:44;;;;;;;;;;;;;;;4.55;84.62;97429.63;5074493;28;19957;-77
2021/10/27 04:27:09;;;;;;;;;;;;;;;4.55;84.43;97435.63;5074494;28;20034;-76
2021/10/27 04:29:35;;;;;;;;;;;;;;;4.56;84.24;97433.84;5074636;28;20005;-76
2021/10/27 04:32:01;;;;;;;;;;;;;;;4.55;84.53;97430.41;5074658;28;20014;-76
2021/10/27 04:34:27;;;;;;;;;;;;;;;4.56;85.04;97431.25;5074780;28;20390;-75
2021/10/27 04:36:53;;;;;;;;;;;;;;;4.56;85.54;97429.47;5074469;28;20481;-76
2021/10/27 04:39:19;;;;;;;;;;;;;;;4.53;86.39;97431.56;5074546;28;19959;-76
2021/10/27 04:41:45;;;;;;;;;;;;;;;4.48;86.45;97427.63;5074207;28;19958;-78
2021/10/27 04:44:11;;;;;;;;;;;;;;;4.45;86.82;97440.94;5074475;28;20058;-76
2021/10/27 04:46:36;;;;;;;;;;;;;;;4.46;86.69;97441.75;5074337;28;19959;-76
2021/10/27 04:49:02;;;;;;;;;;;;;;;4.46;86.68;97436.56;5074588;28;20412;-76
2021/10/27 04:51:28;;;;;;;;;;;;;;;4.45;86.78;97440.94;5074237;28;19971;-76
2021/10/27 04:53:54;;;;;;;;;;;;;;;4.45;86.35;97440.09;5074124;28;19984;-75
2021/10/27 04:56:22;;;;;;;;;;;;;;;4.42;85.53;97446.44;5073217;28;20281;-75
2021/10/27 04:58:48;;;;;;;;;;;;;;;4.37;86.05;97445.28;5074263;28;19969;-76
2021/10/27 05:01:14;;;;;;;;;;;;;;;4.35;85.98;97444.63;5073933;28;20024;-76
2021/10/27 05:03:40;;;;;;;;;;;;;;;4.33;85.69;97447.38;5073850;28;20005;-76
2021/10/27 05:06:07;;;;;;;;;;;;;;;4.30;84.83;97446.84;5074038;28;19996;-76
2021/10/27 05:08:34;;;;;;;;;;;;;;;4.25;84.53;97455.91;5073945;28;19988;-77
2021/10/27 05:11:01;;;;;;;;;;;;;;;4.23;84.67;97452.66;5073708;28;19951;-76
2021/10/27 05:13:27;;;;;;;;;;;;;;;4.22;84.81;97448.44;5073729;28;19972;-75
2021/10/27 05:15:53;;;;;;;;;;;;;;;4.23;84.95;97446.66;5073941;28;19964;-75
2021/10/27 05:18:20;;;;;;;;;;;;;;;4.23;85.25;97442.25;5073882;28;19972;-76
2021/10/27 05:20:46;;;;;;;;;;;;;;;4.21;85.05;97440.78;5073807;28;19951;-75
2021/10/27 05:23:12;;;;;;;;;;;;;;;4.18;85.53;97438.50;5072389;28;19957;-75
2021/10/27 05:25:39;;;;;;;;;;;;;;;4.11;85.06;97437.47;5073866;28;19966;-75
2021/10/27 05:28:06;;;;;;;;;;;;;;;4.03;84.89;97440.81;5073583;28;19954;-75
2021/10/27 05:30:32;;;;;;;;;;;;;;;3.97;85.23;97437.09;5073821;28;19974;-76
2021/10/27 05:32:58;;;;;;;;;;;;;;;3.92;85.35;97438.50;5073588;28;19953;-76
2021/10/27 05:35:24;;;;;;;;;;;;;;;3.90;85.62;97436.03;5073846;28;19954;-76
2021/10/27 05:37:50;;;;;;;;;;;;;;;3.95;85.84;97433.81;5073470;28;19965;-76
2021/10/27 05:40:16;;;;;;;;;;;;;;;3.98;85.74;97441.28;5073440;28;19950;-76
2021/10/27 05:42:42;;;;;;;;;;;;;;;4.05;85.86;97441.50;5073378;28;19955;-76
2021/10/27 05:45:09;;;;;;;;;;;;;;;4.04;86.17;97432.09;5072266;28;20020;-75
2021/10/27 05:47:37;;;;;;;;;;;;;;;4.06;85.95;97435.34;5073500;28;19954;-76
2021/10/27 05:55:34;;;;;;;;;;;;;;;4.18;85.95;97438.50;5073281;28;19961;-76
2021/10/27 05:58:01;;;;;;;;;;;;;;;4.22;85.84;97435.47;5073326;28;19968;-76
2021/10/27 06:00:27;;;;;;;;;;;;;;;4.26;85.88;97430.75;5073417;28;19959;-76
2021/10/27 06:02:52;;;;;;;;;;;;;;;4.31;85.98;97432.91;5073136;28;20320;-76
2021/10/27 06:05:18;;;;;;;;;;;;;;;4.33;85.96;97439.56;5073181;28;19959;-75
2021/10/27 06:07:44;;;;;;;;;;;;;;;4.35;86.11;97429.03;5073348;28;19963;-75
2021/10/27 06:10:13;;;;;;;;;;;;;;;4.37;85.63;97432.31;5073204;28;19952;-75
2021/10/27 06:12:40;;;;;;;;;;;;;;;4.40;85.91;97437.16;5073211;28;19965;-75
2021/10/27 06:15:06;;;;;;;;;;;;;;;4.43;86.19;97435.09;5073217;28;19953;-75
2021/10/27 06:17:35;;;;;;;;;;;;;;;4.45;86.55;97443.53;5072785;28;19967;-75
2021/10/27 06:20:02;;;;;;;;;;;;;;;4.47;86.70;97449.41;5073361;28;19955;-75
2021/10/27 06:22:28;;;;;;;;;;;;;;;4.48;87.05;97448.41;5073325;28;19954;-75
2021/10/27 06:24:54;;;;;;;;;;;;;;;4.48;87.08;97456.22;5072865;28;19975;-75
2021/10/27 06:27:21;;;;;;;;;;;;;;;4.50;86.87;97458.66;5073436;28;19961;-75
2021/10/27 06:29:53;;;;;;;;;;;;;;;4.51;87.06;97464.66;5073116;28;20297;-75
2021/10/27 06:32:41;;;;;;;;;;;;;;;4.50;87.17;97468.25;5073118;28;19960;-75
2021/10/27 06:35:14;;;;;;;;;;;;;;;4.49;87.37;97470.00;5076099;28;19955;-74
2021/10/27 06:48:22;;;;;;;;;;;;;;;4.36;86.91;97472.22;5076544;28;19944;-74
2021/10/27 06:50:48;;;;;;;;;;;;;;;4.32;86.75;97471.69;5076986;28;20001;-75
2021/10/27 06:53:14;;;;;;;;;;;;;;;4.25;86.56;97487.06;5076483;28;19999;-74
2021/10/27 06:55:40;;;;;;;;;;;;;;;4.20;87.12;97486.72;5076223;28;20421;-75
2021/10/27 06:58:09;;;;;;;;;;;;;;;4.23;88.15;97486.41;5075098;28;19974;-75
2021/10/27 07:00:40;;;;;;;;;;;;;;;4.29;88.50;97495.38;5076179;28;19957;-74
2021/10/27 07:16:32;;;;;;;;;;;;;;;3.97;86.63;97501.13;5075970;28;19982;-74
2021/10/27 07:18:58;;;;;;;;;;;;;;;3.96;86.54;97495.13;5075934;28;20067;-75
2021/10/27 07:21:24;;;;;;;;;;;;;;;3.98;87.36;97495.78;5076196;28;19992;-75
2021/10/27 07:23:50;;;;;;;;;;;;;;;4.07;87.60;97496.66;5075938;28;19957;-75
2021/10/27 07:26:17;;;;;;;;;;;;;;;4.18;87.88;97501.63;5075992;28;19963;-75
2021/10/27 07:28:46;;;;;;;;;;;;;;;4.28;86.65;97491.13;5075642;28;19953;-74
2021/10/27 07:31:15;;;;;;;;;;;;;;;4.36;86.49;97488.59;5076166;28;19952;-74
2021/10/27 07:33:42;;;;;;;;;;;;;;;4.41;87.14;97495.94;5076025;28;19949;-74
2021/10/27 07:41:38;;;;;;;;;;;;;;;4.61;85.62;97501.75;5075788;28;19958;-74
2021/10/27 07:44:14;;;;;;;;;;;;;;;4.59;85.46;97498.47;5075452;28;19960;-74
2021/10/27 07:46:41;;;;;;;;;;;;;;;4.64;86.08;97504.00;5074525;28;19954;-74
2021/10/27 07:49:07;;;;;;;;;;;;;;;4.69;86.39;97501.78;5075326;28;19951;-75
2021/10/27 07:51:33;;;;;;;;;;;;;;;4.67;86.19;97496.75;5075849;28;20367;-74
2021/10/27 07:53:59;;;;;;;;;;;;;;;4.71;85.96;97499.03;5075893;28;19999;-74
2021/10/27 07:56:29;;;;;;;;;;;;;;;4.80;86.43;97496.31;5075422;28;19957;-75
2021/10/27 07:58:55;;;;;;;;;;;;;;;5.18;98.80;97498.56;5075242;28;19981;-75
2021/10/27 08:01:21;;;;;;;;;;;;;;;5.45;90.20;97493.13;5075306;28;20329;-75
2021/10/27 08:03:47;;;;;;;;;;;;;;;5.52;84.80;97502.91;5075180;28;19947;-75
2021/10/27 08:06:13;;;;;;;;;;;;;;;5.45;84.38;97502.72;5074909;28;19959;-75
2021/10/27 08:08:39;;;;;;;;;;;;;;;5.36;85.05;97509.69;5075100;28;19949;-75
2021/10/27 08:11:05;;;;;;;;;;;;;;;5.37;86.03;97513.09;5075147;28;19992;-75
2021/10/27 08:13:31;;;;;;;;;;;;;;;5.45;85.59;97513.94;5074865;28;19980;-75
2021/10/27 08:15:57;;;;;;;;;;;;;;;5.59;85.19;97519.50;5074851;28;19957;-76
2021/10/27 08:18:23;;;;;;;;;;;;;;;5.75;85.10;97513.50;5074614;28;19972;-75
2021/10/27 08:20:50;;;;;;;;;;;;;;;5.87;84.64;97510.44;5074855;28;20393;-75
2021/10/27 08:23:18;;;;;;;;;;;;;;;5.96;84.77;97511.28;5073291;28;19954;-75
2021/10/27 08:25:45;;;;;;;;;;;;;;;6.08;84.86;97502.16;5074839;28;19952;-75
2021/10/27 08:28:14;;;;;;;;;;;;;;;6.24;84.45;97503.16;5074543;28;19956;-74
2021/10/27 08:30:54;;;;;;;;;;;;;;;6.69;95.88;97505.16;5074758;28;19950;-76
2021/10/27 08:33:25;;;;;;;;;;;;;;;7.24;89.72;97500.09;5059253;28;19957;-75
2021/10/27 08:35:52;;;;;;;;;;;;;;;7.40;82.46;97502.63;5074644;28;19952;-75
2021/10/27 08:38:18;;;;;;;;;;;;;;;7.35;81.87;97501.50;5073912;28;19984;-75
2021/10/27 08:40:46;;;;;;;;;;;;;;;7.29;81.85;97501.22;5074463;28;19956;-75
2021/10/27 08:43:12;;;;;;;;;;;;;;;7.30;82.54;97502.03;5074238;28;19954;-76
2021/10/27 08:45:39;;;;;;;;;;;;;;;7.31;82.25;97501.84;5074644;28;19954;-75
2021/10/27 08:48:09;;;;;;;;;;;;;;;7.22;82.61;97496.84;5074169;28;19949;-76
2021/10/27 08:50:36;;;;;;;;;;;;;;;7.15;82.92;97506.34;5074394;28;19953;-75
2021/10/27 08:53:02;;;;;;;;;;;;;;;7.01;82.46;97498.22;5074522;28;19980;-75
2021/10/27 08:55:31;;;;;;;;;;;;;;;6.95;83.08;97504.13;5073970;28;19979;-75
2021/10/27 08:57:59;;;;;;;;;;;;;;;6.91;83.47;97501.06;5073530;28;19961;-75
2021/10/27 09:43:47;;;;;;;;;;;;;;;8.50;84.49;97467.50;5059546;28;19964;-75
2021/10/27 10:06:01;;;;;;;;;;;;;;;9.22;84.72;97458.16;5073463;28;19958;-75
2021/10/27 10:08:27;;;;;;;;;;;;;;;9.42;83.98;97451.34;5073908;28;19962;-75
2021/10/27 10:10:53;;;;;;;;;;;;;;;9.58;82.46;97439.84;5077150;28;20331;-76
2021/10/27 10:13:21;;;;;;;;;;;;;;;9.67;80.87;97448.38;5076059;28;19963;-75
2021/10/27 10:15:47;;;;;;;;;;;;;;;9.71;80.55;97444.38;5077380;28;19977;-75
2021/10/27 10:18:13;;;;;;;;;;;;;;;9.82;81.19;97445.69;5077238;28;19976;-75
2021/10/27 10:20:40;;;;;;;;;;;;;;;9.98;80.90;97445.44;5064249;28;19964;-75
2021/10/27 10:23:20;;;;;;;;;;;;;;;10.14;80.13;97441.72;5076750;28;20316;-75
2021/10/27 10:25:53;;;;;;;;;;;;;;;10.33;79.36;97440.25;5077448;28;19960;-75
2021/10/27 10:28:21;;;;;;;;;;;;;;;10.49;78.99;97437.34;5077136;28;19953;-75
2021/10/27 10:30:51;;;;;;;;;;;;;;;10.73;80.18;97437.88;5076786;28;19953;-75
2021/10/27 10:33:17;;;;;;;;;;;;;;;10.87;78.05;97439.56;5076866;28;19954;-76
2021/10/27 10:38:26;;;;;;;;;;;;;;;10.91;76.56;97429.50;5077114;28;19973;-75
2021/10/27 10:41:02;;;;;;;;;;;;;;;10.99;77.85;97426.69;5076578;28;19960;-75
2021/10/27 11:40:43;;;;;;;;;;;;;;;13.51;65.96;97334.47;5075532;28;20327;-74
2021/10/27 11:45:41;;;;;;;;;;;;;;;13.54;67.69;97329.59;5075337;28;19957;-76
2021/10/27 11:48:30;;;;;;;;;;;;;;;13.56;67.59;97324.06;5064808;28;19958;-74
2021/10/27 11:50:57;;;;;;;;;;;;;;;13.56;68.29;97327.50;5066751;28;19958;-74
2021/10/27 11:53:27;;;;;;;;;;;;;;;13.57;67.57;97318.59;5075065;28;20010;-74
2021/10/27 11:55:54;;;;;;;;;;;;;;;13.55;68.50;97323.28;5075965;28;19956;-75
2021/10/27 11:58:23;;;;;;;;;;;;;;;13.61;67.51;97313.72;5074700;28;19975;-74
2021/10/27 12:00:59;;;;;;;;;;;;;;;13.70;66.68;97307.13;5075399;28;19954;-75
2021/10/27 12:03:33;;;;;;;;;;;;;;;13.75;64.26;97294.13;5075086;28;19967;-74
2021/10/27 12:06:04;;;;;;;;;;;;;;;13.74;65.63;97296.97;5075088;28;19957;-75
2021/10/27 12:14:23;;;;;;;;;;;;;;;13.85;65.46;97285.69;5052787;28;19951;-75
2021/10/27 12:19:17;;;;;;;;;;;;;;;13.95;67.35;97293.13;5075186;28;19977;-74
2021/10/27 12:22:03;;;;;;;;;;;;;;;14.01;65.52;97281.69;5074790;28;20005;-75
2021/10/27 12:24:31;;;;;;;;;;;;;;;14.10;66.95;97288.28;5074537;28;20428;-75
2021/10/27 12:27:08;;;;;;;;;;;;;;;14.15;65.86;97279.72;5074606;28;19961;-75
2021/10/27 12:29:36;;;;;;;;;;;;;;;14.19;64.77;97271.16;5074985;28;19963;-77
2021/10/27 12:32:09;;;;;;;;;;;;;;;14.23;64.98;97262.78;5074067;28;19963;-74
2021/10/27 12:34:44;;;;;;;;;;;;;;;14.26;65.97;97259.69;5074673;28;19958;-75
2021/10/27 12:37:16;;;;;;;;;;;;;;;14.31;65.46;97259.84;5074509;28;20420;-75
2021/10/27 12:39:45;;;;;;;;;;;;;;;14.26;64.22;97255.25;5074510;28;19971;-75
2021/10/27 12:42:13;;;;;;;;;;;;;;;14.28;65.34;97258.47;5074403;28;19960;-75
2021/10/27 12:44:45;;;;;;;;;;;;;;;14.33;65.11;97252.53;5074424;28;20427;-75
2021/10/27 12:47:17;;;;;;;;;;;;;;;14.38;65.60;97245.56;5074318;28;19961;-74
2021/10/27 12:49:45;;;;;;;;;;;;;;;14.41;64.84;97245.09;5074245;28;19960;-75
2021/10/27 12:52:27;;;;;;;;;;;;;;;14.46;63.09;97238.34;5074109;28;19978;-75
2021/10/27 12:55:05;;;;;;;;;;;;;;;14.48;63.95;97245.00;5074363;28;19950;-75
2021/10/27 12:57:41;;;;;;;;;;;;;;;14.54;63.73;97240.69;5072420;28;19969;-75
2021/10/27 13:00:17;;;;;;;;;;;;;;;14.60;64.54;97245.91;5074555;28;20457;-75
2021/10/27 13:02:51;;;;;;;;;;;;;;;14.69;64.53;97235.84;5074131;28;19963;-75
2021/10/27 13:05:39;;;;;;;;;;;;;;;14.76;63.50;97228.63;5073464;28;20436;-75
2021/10/27 13:08:21;;;;;;;;;;;;;;;14.85;62.20;97215.13;5073941;28;19955;-75
2021/10/27 13:11:04;;;;;;;;;;;;;;;14.92;63.66;97221.88;5074052;28;19955;-75
2021/10/27 13:19:00;;;;;;;;;;;;;;;15.04;63.16;97218.50;5073966;28;19983;-75
2021/10/27 13:32:15;;;;;;;;;;;;;;;15.34;62.13;97207.81;5073667;28;19948;-75
2021/10/27 13:34:41;;;;;;;;;;;;;;;15.34;62.10;97207.81;5073368;28;19950;-75
2021/10/27 13:37:07;;;;;;;;;;;;;;;15.35;62.00;97206.78;5073421;28;20426;-74
2021/10/27 13:39:34;;;;;;;;;;;;;;;15.34;59.14;97178.75;5073400;28;19969;-74
2021/10/27 13:42:05;;;;;;;;;;;;;;;15.36;62.25;97211.03;5073425;28;20326;-74
2021/10/27 13:44:36;;;;;;;;;;;;;;;15.41;60.14;97184.72;5072675;28;19951;-74
2021/10/27 13:47:14;;;;;;;;;;;;;;;15.45;61.39;97199.09;5073657;28;19959;-75
2021/10/27 13:57:37;;;;;;;;;;;;;;;15.45;60.47;97191.16;5073403;28;19957;-75
2021/10/27 13:58:56;;;;;;;;;;;;;;;15.45;58.96;97175.28;5073540;28;19971;-75
2021/10/27 14:06:37;;;;;;;;;;;;;;;15.48;61.62;97192.56;5073557;28;20432;-75
2021/10/27 14:09:30;;;;;;;;;;;;;;;15.48;60.61;97187.28;5073399;28;19969;-75
2021/10/27 14:14:42;;;;;;;;;;;;;;;15.41;59.99;97176.78;5073289;28;19960;-75
2021/10/27 15:25:33;;;;;;;;;;;;;;;13.72;62.83;97138.22;5075756;28;19969;-74
2021/10/27 15:32:49;;;;;;;;;;;;;;;13.54;64.49;97129.28;5075627;28;19951;-75
2021/10/27 15:43:23;;;;;;;;;;;;;;;13.29;65.72;97132.00;5075722;28;19959;-75
2021/10/27 15:51:20;;;;;;;;;;;;;;;13.04;66.56;97137.25;5075250;28;19961;-75
2021/10/27 15:53:46;;;;;;;;;;;;;;;12.95;66.51;97130.63;5073796;28;19994;-74
2021/10/27 15:56:12;;;;;;;;;;;;;;;12.87;66.67;97128.28;5075066;28;19961;-75
2021/10/27 15:58:38;;;;;;;;;;;;;;;12.78;67.06;97125.09;5075043;28;19957;-74
2021/10/27 16:01:04;;;;;;;;;;;;;;;12.69;67.62;97129.03;5074932;28;20450;-74
2021/10/27 16:03:30;;;;;;;;;;;;;;;12.63;67.66;97127.25;5074591;28;19957;-74
2021/10/27 16:05:58;;;;;;;;;;;;;;;12.55;67.88;97136.22;5074023;28;20538;-75
2021/10/27 16:08:27;;;;;;;;;;;;;;;12.54;72.31;97131.97;5074532;28;19960;-75
2021/10/27 16:10:54;;;;;;;;;;;;;;;12.56;69.60;97120.22;5074901;28;19953;-75
2021/10/27 16:13:20;;;;;;;;;;;;;;;12.53;68.66;97123.25;5074624;28;20314;-74
2021/10/27 16:18:22;;;;;;;;;;;;;;;12.42;68.58;97137.09;5074777;28;19955;-75
2021/10/27 16:20:48;;;;;;;;;;;;;;;12.34;68.77;97134.72;5074505;28;19973;-75
2021/10/27 16:23:15;;;;;;;;;;;;;;;12.28;68.85;97141.63;5074583;28;19966;-74
2021/10/27 16:25:42;;;;;;;;;;;;;;;12.23;68.89;97138.84;5074361;28;19963;-75
2021/10/27 16:28:09;;;;;;;;;;;;;;;12.18;68.95;97136.03;5074178;28;20028;-75
2021/10/27 16:30:35;;;;;;;;;;;;;;;12.12;69.13;97144.78;5074858;28;19979;-74
2021/10/27 16:33:01;;;;;;;;;;;;;;;12.06;69.28;97146.41;5074472;28;20360;-75
2021/10/27 16:35:28;;;;;;;;;;;;;;;11.99;69.23;97143.03;5074377;28;19950;-75
2021/10/27 16:37:54;;;;;;;;;;;;;;;11.92;69.66;97144.84;5074227;28;19952;-75
2021/10/27 16:40:20;;;;;;;;;;;;;;;11.86;69.67;97137.78;5074092;28;19966;-75
2021/10/27 16:42:47;;;;;;;;;;;;;;;11.78;69.84;97139.63;5074344;28;20013;-75
2021/10/27 16:45:14;;;;;;;;;;;;;;;11.71;70.02;97138.84;5073972;28;19957;-75
2021/10/27 16:47:40;;;;;;;;;;;;;;;11.67;70.16;97147.34;5073916;28;19957;-75
2021/10/27 16:50:07;;;;;;;;;;;;;;;11.60;70.55;97142.13;5073827;28;19945;-74
2021/10/27 16:52:34;;;;;;;;;;;;;;;11.53;70.75;97144.75;5074167;28;20103;-75
2021/10/27 16:55:03;;;;;;;;;;;;;;;11.49;70.75;97143.56;5073921;28;19987;-75
2021/10/27 16:57:29;;;;;;;;;;;;;;;11.45;70.83;97141.56;5073946;28;19960;-74
2021/10/27 16:59:56;;;;;;;;;;;;;;;11.41;70.70;97146.41;5074005;28;19992;-74
2021/10/27 17:02:22;;;;;;;;;;;;;;;11.37;70.94;97146.00;5073844;28;19962;-75
2021/10/27 17:04:48;;;;;;;;;;;;;;;11.32;70.97;97153.69;5073751;28;20038;-74
2021/10/27 17:07:14;;;;;;;;;;;;;;;11.28;71.30;97159.56;5073991;28;19967;-75
2021/10/27 17:09:40;;;;;;;;;;;;;;;11.24;71.46;97161.00;5073618;28;19949;-75
2021/10/27 17:12:07;;;;;;;;;;;;;;;11.18;71.50;97158.16;5073936;28;19964;-74
2021/10/27 17:14:34;;;;;;;;;;;;;;;11.14;71.34;97162.19;5073526;28;19956;-74
2021/10/27 17:17:00;;;;;;;;;;;;;;;11.09;71.80;97161.22;5073919;28;19949;-74
2021/10/27 17:19:26;;;;;;;;;;;;;;;11.04;71.77;97161.00;5073227;28;20332;-75
2021/10/27 17:21:52;;;;;;;;;;;;;;;10.99;72.15;97158.19;5073547;28;19964;-74
2021/10/27 17:24:18;;;;;;;;;;;;;;;10.93;72.07;97157.97;5073467;28;20002;-75
2021/10/27 17:26:44;;;;;;;;;;;;;;;10.89;71.96;97161.22;5073405;28;19953;-74
2021/10/27 17:29:11;;;;;;;;;;;;;;;10.82;72.01;97153.34;5073326;28;20392;-74
2021/10/27 17:31:37;;;;;;;;;;;;;;;10.76;72.29;97162.81;5073861;28;20426;-74
2021/10/27 17:34:04;;;;;;;;;;;;;;;10.71;72.21;97161.81;5073368;28;20335;-74
2021/10/27 17:36:30;;;;;;;;;;;;;;;10.66;72.60;97161.59;5073232;28;19959;-74
2021/10/27 17:38:56;;;;;;;;;;;;;;;10.57;72.19;97159.16;5073646;28;20406;-74
2021/10/27 17:41:25;;;;;;;;;;;;;;;10.52;72.58;97160.75;5073160;28;19971;-74
2021/10/27 17:43:52;;;;;;;;;;;;;;;10.45;72.33;97163.38;5073735;28;20335;-74